Time;durP1;ratioP1;P1;durP2;ratioP2;P2;SDS_P1;SDS_P2;PMS_P1;PMS_P2;Temp;Humidity;BMP_temperature;BMP_pressure;BME280_temperature;BME280_humidity;BME280_pressure;Samples;Min_cycle;Max_cycle;Signal;HPM_P1;HPM_P2
2022/07/16 00:02:08;;;;;;;4.32;1.55;;;18.00;81.60;;;;;;5031863;28;20045;-43
2022/07/16 00:04:35;;;;;;;3.28;1.52;;;18.00;82.00;;;;;;5032508;28;20128;-42
2022/07/16 00:07:03;;;;;;;2.22;1.45;;;17.90;82.00;;;;;;5031516;28;20136;-42
2022/07/16 00:09:30;;;;;;;4.00;1.40;;;17.90;82.00;;;;;;5030026;28;20060;-42
2022/07/16 00:11:57;;;;;;;2.60;1.40;;;17.80;82.40;;;;;;5033183;28;20151;-42
2022/07/16 00:14:23;;;;;;;6.55;1.42;;;17.80;83.10;;;;;;5033389;28;20128;-41
2022/07/16 00:16:50;;;;;;;3.75;1.50;;;17.80;82.80;;;;;;5032337;28;20494;-41
2022/07/16 00:19:18;;;;;;;3.30;1.58;;;17.70;82.80;;;;;;5032536;28;20383;-41
2022/07/16 00:21:45;;;;;;;3.95;1.45;;;17.80;82.90;;;;;;5033073;28;20482;-42
2022/07/16 00:24:13;;;;;;;4.15;1.80;;;17.70;83.20;;;;;;5031622;28;20080;-42
2022/07/16 00:26:40;;;;;;;3.75;1.83;;;17.70;83.90;;;;;;5030025;28;20069;-42
2022/07/16 00:29:07;;;;;;;2.92;1.60;;;17.70;84.20;;;;;;5031593;28;20057;-42
2022/07/16 00:31:34;;;;;;;4.93;1.75;;;17.60;84.50;;;;;;5033584;28;20115;-42
2022/07/16 00:34:01;;;;;;;3.22;1.75;;;17.70;84.80;;;;;;5033660;28;20064;-42
2022/07/16 00:36:27;;;;;;;3.45;1.77;;;17.60;85.20;;;;;;5032693;28;20138;-42
2022/07/16 00:38:54;;;;;;;2.92;1.60;;;17.70;85.40;;;;;;5033465;28;20089;-42
2022/07/16 00:41:22;;;;;;;3.90;1.73;;;17.60;86.00;;;;;;5033414;28;20136;-42
2022/07/16 00:43:50;;;;;;;5.15;1.95;;;17.60;86.40;;;;;;5031964;28;20136;-42
2022/07/16 00:46:17;;;;;;;4.72;1.98;;;17.60;86.80;;;;;;5031606;28;20120;-42
2022/07/16 00:48:44;;;;;;;4.53;2.05;;;17.70;87.00;;;;;;5031799;28;20415;-42
2022/07/16 00:51:11;;;;;;;6.90;2.22;;;17.60;87.30;;;;;;5030038;28;20552;-42
2022/07/16 00:53:38;;;;;;;6.75;2.30;;;17.60;88.00;;;;;;5031850;28;20132;-42
2022/07/16 00:56:08;;;;;;;6.10;1.92;;;17.70;89.20;;;;;;5030100;28;20059;-42
2022/07/16 00:58:37;;;;;;;4.15;2.10;;;17.70;88.60;;;;;;5028633;28;20417;-42
2022/07/16 01:01:03;;;;;;;3.17;1.73;;;17.60;88.80;;;;;;5032470;28;20045;-42
2022/07/16 01:03:31;;;;;;;4.68;2.33;;;17.70;89.00;;;;;;5031414;28;20049;-42
2022/07/16 01:05:57;;;;;;;4.80;2.20;;;17.60;89.50;;;;;;5030771;28;20061;-42
2022/07/16 01:08:24;;;;;;;4.50;2.42;;;17.70;89.90;;;;;;5016597;28;20051;-43
2022/07/16 01:10:51;;;;;;;6.70;2.55;;;17.60;90.30;;;;;;5030513;28;20128;-42
2022/07/16 01:13:18;;;;;;;6.95;2.50;;;17.60;90.50;;;;;;5031149;28;20061;-43
2022/07/16 01:15:46;;;;;;;4.50;2.20;;;17.60;90.70;;;;;;5028253;28;20111;-42
2022/07/16 01:18:12;;;;;;;4.65;2.35;;;17.60;90.90;;;;;;5031302;28;20080;-41
2022/07/16 01:20:39;;;;;;;4.57;1.90;;;17.60;91.30;;;;;;5030826;28;20470;-43
2022/07/16 01:23:06;;;;;;;7.20;2.60;;;17.60;91.30;;;;;;5031195;28;20125;-42
2022/07/16 01:25:34;;;;;;;5.70;3.25;;;17.60;91.80;;;;;;5030640;28;20045;-42
2022/07/16 01:28:01;;;;;;;5.82;2.50;;;17.60;92.50;;;;;;5031701;28;20129;-42
2022/07/16 01:30:27;;;;;;;6.90;3.00;;;17.50;92.60;;;;;;5030547;28;20049;-42
2022/07/16 01:32:54;;;;;;;6.95;3.05;;;17.50;93.10;;;;;;5031584;28;20128;-43
2022/07/16 01:35:21;;;;;;;5.72;3.00;;;17.50;93.60;;;;;;5029301;28;20140;-44
2022/07/16 01:37:48;;;;;;;4.38;2.80;;;17.40;94.00;;;;;;5031636;28;20049;-44
2022/07/16 01:40:14;;;;;;;4.43;3.00;;;17.30;94.50;;;;;;5029666;28;20077;-43
2022/07/16 01:42:44;;;;;;;9.10;3.20;;;17.30;95.20;;;;;;5028360;28;20089;-44
2022/07/16 01:45:11;;;;;;;8.70;3.03;;;17.20;95.90;;;;;;5027305;28;20149;-44
2022/07/16 01:47:38;;;;;;;7.93;3.35;;;17.20;96.40;;;;;;5031330;28;20575;-43
2022/07/16 01:50:05;;;;;;;4.82;2.88;;;17.10;97.10;;;;;;5031459;28;20089;-43
2022/07/16 01:52:32;;;;;;;4.63;2.78;;;17.00;97.20;;;;;;5031851;28;20129;-43
2022/07/16 01:54:59;;;;;;;7.93;2.90;;;17.00;97.20;;;;;;5031645;28;20049;-43
2022/07/16 01:57:26;;;;;;;5.78;3.08;;;17.00;97.50;;;;;;5029785;28;20049;-43
2022/07/16 01:59:54;;;;;;;6.63;2.42;;;17.00;97.70;;;;;;5032916;28;20087;-43
2022/07/16 02:02:20;;;;;;;6.03;3.03;;;17.00;97.50;;;;;;5035076;28;20049;-42
2022/07/16 02:04:47;;;;;;;6.68;2.88;;;17.00;97.80;;;;;;5033946;28;20136;-43
2022/07/16 02:07:14;;;;;;;8.85;2.72;;;17.00;98.10;;;;;;5033230;28;20100;-43
2022/07/16 02:09:41;;;;;;;4.90;2.58;;;17.00;98.00;;;;;;5034776;28;20060;-43
2022/07/16 02:12:07;;;;;;;7.03;2.90;;;17.00;98.00;;;;;;5032584;28;20111;-43
2022/07/16 02:14:34;;;;;;;4.97;2.45;;;16.90;98.20;;;;;;5036057;28;20140;-42
2022/07/16 02:17:02;;;;;;;4.13;2.22;;;16.90;98.20;;;;;;5033216;28;20052;-42
2022/07/16 02:19:29;;;;;;;3.90;2.30;;;16.90;98.00;;;;;;5035456;28;20485;-43
2022/07/16 02:21:56;;;;;;;4.90;2.92;;;16.90;97.90;;;;;;5033601;28;20067;-44
2022/07/16 02:24:23;;;;;;;5.18;2.85;;;16.90;98.20;;;;;;5034628;28;20122;-43
2022/07/16 02:26:50;;;;;;;5.70;2.80;;;16.90;98.30;;;;;;5033472;28;20081;-42
2022/07/16 02:29:16;;;;;;;5.82;3.03;;;16.90;98.30;;;;;;5034762;28;20084;-43
2022/07/16 02:31:43;;;;;;;4.07;2.70;;;16.90;98.60;;;;;;5034615;28;20049;-42
2022/07/16 02:34:11;;;;;;;4.63;2.50;;;16.90;98.60;;;;;;5034788;28;20064;-42
2022/07/16 02:36:38;;;;;;;5.05;2.50;;;16.90;98.60;;;;;;5035558;28;20378;-42
2022/07/16 02:39:05;;;;;;;6.93;2.42;;;16.90;98.50;;;;;;5033365;28;20679;-42
2022/07/16 02:41:31;;;;;;;5.80;2.83;;;16.90;98.20;;;;;;5033846;28;20154;-43
2022/07/16 02:43:58;;;;;;;6.55;3.10;;;16.90;98.50;;;;;;5033204;28;20136;-43
2022/07/16 02:46:25;;;;;;;9.07;3.25;;;16.90;98.60;;;;;;5034538;28;20083;-41
2022/07/16 02:48:52;;;;;;;6.40;2.35;;;16.90;99.10;;;;;;5034442;28;20485;-42
2022/07/16 02:51:20;;;;;;;5.53;2.55;;;16.90;99.10;;;;;;5033089;28;20485;-43
2022/07/16 02:53:46;;;;;;;4.20;2.60;;;16.80;99.10;;;;;;5034027;28;20058;-44
2022/07/16 02:56:13;;;;;;;4.75;2.47;;;16.80;99.40;;;;;;5034697;28;20084;-43
2022/07/16 02:58:40;;;;;;;4.93;2.42;;;16.80;99.70;;;;;;5032950;28;20084;-43
2022/07/16 03:01:07;;;;;;;6.20;2.20;;;16.70;99.70;;;;;;5034823;28;20474;-42
2022/07/16 03:03:34;;;;;;;6.03;2.67;;;16.70;99.90;;;;;;5034336;28;20049;-42
2022/07/16 03:06:00;;;;;;;6.60;2.13;;;16.70;99.90;;;;;;5032968;28;20132;-42
2022/07/16 03:08:29;;;;;;;6.72;2.20;;;16.70;99.90;;;;;;5032694;28;20139;-42
2022/07/16 03:10:55;;;;;;;7.45;2.17;;;16.60;99.90;;;;;;5032023;28;20049;-42
2022/07/16 03:13:22;;;;;;;6.68;2.10;;;16.60;99.90;;;;;;5032377;28;20405;-42
2022/07/16 03:15:49;;;;;;;6.57;1.70;;;16.60;99.90;;;;;;5033258;28;20536;-43
2022/07/16 03:18:16;;;;;;;5.32;1.60;;;16.60;99.90;;;;;;5033392;28;20128;-43
2022/07/16 03:20:42;;;;;;;5.82;2.00;;;16.60;99.90;;;;;;5033431;28;20128;-43
2022/07/16 03:23:09;;;;;;;8.32;1.90;;;16.50;99.90;;;;;;5034370;28;20137;-42
2022/07/16 03:25:37;;;;;;;7.15;1.92;;;16.50;99.90;;;;;;5033477;28;20069;-41
2022/07/16 03:28:04;;;;;;;5.07;1.70;;;16.50;99.90;;;;;;5031454;28;20125;-42
2022/07/16 03:30:31;;;;;;;8.80;1.77;;;16.50;99.90;;;;;;5032570;28;20083;-42
2022/07/16 03:32:58;;;;;;;3.92;1.48;;;16.50;99.90;;;;;;5033628;28;20049;-43
2022/07/16 03:35:25;;;;;;;4.80;1.73;;;16.50;99.90;;;;;;5033648;28;20140;-42
2022/07/16 03:40:37;;;;;;;5.70;1.80;;;16.40;99.90;;;;;;5035020;28;20049;-42
2022/07/16 03:43:04;;;;;;;5.68;1.90;;;16.30;99.90;;;;;;5033343;28;20183;-42
2022/07/16 03:45:31;;;;;;;3.88;1.42;;;16.30;99.90;;;;;;5033513;28;20129;-41
2022/07/16 03:47:57;;;;;;;5.07;1.30;;;16.30;99.90;;;;;;5031503;28;20134;-43
2022/07/16 03:50:24;;;;;;;7.55;1.65;;;16.20;99.90;;;;;;5033230;28;20048;-43
2022/07/16 03:52:51;;;;;;;3.13;1.30;;;16.20;99.90;;;;;;5034112;28;20143;-44
2022/07/16 03:55:18;;;;;;;5.63;1.80;;;16.20;99.90;;;;;;5033027;28;20092;-43
2022/07/16 03:57:46;;;;;;;4.32;1.58;;;16.20;99.90;;;;;;5033674;28;20085;-43
2022/07/16 04:00:13;;;;;;;8.88;1.92;;;16.20;99.90;;;;;;5031382;28;20049;-43
2022/07/16 04:02:40;;;;;;;5.65;1.52;;;16.10;99.90;;;;;;5030416;28;20156;-43
2022/07/16 04:05:07;;;;;;;4.07;1.55;;;16.10;99.90;;;;;;5032553;28;20145;-43
2022/07/16 04:07:34;;;;;;;3.55;1.40;;;16.10;99.90;;;;;;5033104;28;20092;-43
2022/07/16 04:10:01;;;;;;;5.60;1.90;;;16.00;99.90;;;;;;5034098;28;20464;-43
2022/07/16 04:12:27;;;;;;;5.05;1.75;;;16.00;99.90;;;;;;5033496;28;20053;-43
2022/07/16 04:14:56;;;;;;;5.63;2.00;;;16.00;99.90;;;;;;5033104;28;20054;-43
2022/07/16 04:17:22;;;;;;;6.65;1.85;;;15.90;99.90;;;;;;5033946;28;20132;-43
2022/07/16 04:19:50;;;;;;;7.72;1.60;;;15.90;99.90;;;;;;5033748;28;20060;-42
2022/07/16 04:22:17;;;;;;;6.82;1.77;;;15.90;99.90;;;;;;5032173;28;20057;-42
2022/07/16 04:24:43;;;;;;;5.55;1.65;;;15.90;99.90;;;;;;5031986;28;20132;-43
2022/07/16 04:27:10;;;;;;;6.32;1.60;;;15.90;99.90;;;;;;5031808;28;20115;-43
2022/07/16 04:29:37;;;;;;;10.18;2.20;;;15.90;99.90;;;;;;5031600;28;20056;-43
2022/07/16 04:32:06;;;;;;;6.75;1.80;;;15.90;99.90;;;;;;5033010;28;20527;-43
2022/07/16 04:34:32;;;;;;;5.13;1.75;;;15.80;99.90;;;;;;5032318;28;20064;-42
2022/07/16 04:36:59;;;;;;;8.20;1.98;;;15.80;99.90;;;;;;5031789;28;20098;-43
2022/07/16 04:39:26;;;;;;;5.88;1.88;;;15.80;99.90;;;;;;5031731;28;20128;-43
2022/07/16 04:41:53;;;;;;;7.63;2.30;;;15.70;99.90;;;;;;5032411;28;20421;-42
2022/07/16 04:44:20;;;;;;;5.78;2.17;;;15.70;99.90;;;;;;5032865;28;20096;-43
2022/07/16 04:46:46;;;;;;;6.05;2.15;;;15.60;99.90;;;;;;5030294;28;20170;-43
2022/07/16 04:49:14;;;;;;;7.07;2.10;;;15.60;99.90;;;;;;5030510;28;20045;-44
2022/07/16 04:51:41;;;;;;;8.95;2.08;;;15.60;99.90;;;;;;5032314;28;20386;-43
2022/07/16 04:54:08;;;;;;;8.02;2.22;;;15.60;99.90;;;;;;5030857;28;20136;-44
2022/07/16 04:56:35;;;;;;;7.97;2.30;;;15.60;99.90;;;;;;5032434;28;20464;-43
2022/07/16 04:59:01;;;;;;;7.50;2.03;;;15.50;99.90;;;;;;5033042;28;20049;-42
2022/07/16 05:01:28;;;;;;;9.70;2.25;;;15.60;99.90;;;;;;5027633;28;20132;-43
2022/07/16 05:03:55;;;;;;;6.22;2.03;;;15.50;99.90;;;;;;5029549;28;20132;-43
2022/07/16 05:06:23;;;;;;;6.90;2.38;;;15.50;99.90;;;;;;5031313;28;20133;-43
2022/07/16 05:08:50;;;;;;;5.65;2.00;;;15.50;99.90;;;;;;5031423;28;20141;-43
2022/07/16 05:11:17;;;;;;;7.15;2.10;;;15.50;99.90;;;;;;5032984;28;20057;-43
2022/07/16 05:13:43;;;;;;;9.68;1.90;;;15.50;99.90;;;;;;5030747;28;20460;-43
2022/07/16 05:16:10;;;;;;;12.65;3.03;;;15.50;99.90;;;;;;5032908;28;20140;-43
2022/07/16 05:18:37;;;;;;;10.88;2.00;;;15.50;99.90;;;;;;5031602;28;20045;-43
2022/07/16 05:21:03;;;;;;;5.90;1.45;;;15.50;99.90;;;;;;5031712;28;20072;-42
2022/07/16 05:23:32;;;;;;;8.95;1.92;;;15.50;99.90;;;;;;5031142;28;20404;-43
2022/07/16 05:25:58;;;;;;;8.77;1.80;;;15.50;99.90;;;;;;5032798;28;20132;-43
2022/07/16 05:28:25;;;;;;;7.70;2.03;;;15.50;99.90;;;;;;5031508;28;20903;-43
2022/07/16 05:30:52;;;;;;;9.73;1.83;;;15.60;99.90;;;;;;5031248;28;20061;-43
2022/07/16 05:33:18;;;;;;;6.55;2.00;;;15.60;99.90;;;;;;5029820;28;20128;-43
2022/07/16 05:35:45;;;;;;;9.00;2.13;;;15.70;99.90;;;;;;5031386;28;20140;-43
2022/07/16 05:38:12;;;;;;;6.45;1.70;;;15.80;99.90;;;;;;5025761;28;20046;-43
2022/07/16 05:40:41;;;;;;;9.65;1.90;;;15.80;99.90;;;;;;5025686;28;20045;-43
2022/07/16 05:43:08;;;;;;;8.77;2.70;;;15.90;99.90;;;;;;5031216;28;20490;-43
2022/07/16 05:45:35;;;;;;;7.32;1.95;;;16.00;99.90;;;;;;5032318;28;20084;-43
2022/07/16 05:48:01;;;;;;;8.63;1.83;;;16.10;99.90;;;;;;5029382;28;20060;-43
2022/07/16 05:50:28;;;;;;;9.48;1.70;;;16.20;99.90;;;;;;5029851;28;20049;-43
2022/07/16 05:52:55;;;;;;;11.35;2.20;;;16.30;99.90;;;;;;5032641;28;20089;-42
2022/07/16 05:55:21;;;;;;;7.35;1.50;;;16.30;99.90;;;;;;5032212;28;20136;-44
2022/07/16 05:57:50;;;;;;;8.02;1.55;;;16.40;99.90;;;;;;5030864;28;20136;-42
2022/07/16 06:00:16;;;;;;;9.38;1.52;;;16.50;99.90;;;;;;5031007;28;20054;-44
2022/07/16 06:02:43;;;;;;;12.05;1.63;;;16.50;99.90;;;;;;5027467;28;20140;-43
2022/07/16 06:05:10;;;;;;;7.00;1.55;;;16.60;99.60;;;;;;5029831;28;20474;-43
2022/07/16 06:07:37;;;;;;;6.75;1.80;;;16.70;99.30;;;;;;5030729;28;20405;-42
2022/07/16 06:10:04;;;;;;;11.93;2.13;;;16.80;99.20;;;;;;5027824;28;20096;-43
2022/07/16 06:12:31;;;;;;;10.15;1.77;;;16.80;99.10;;;;;;5026245;28;20660;-43
2022/07/16 06:14:59;;;;;;;11.52;1.92;;;16.90;98.70;;;;;;5028929;28;20489;-43
2022/07/16 06:17:26;;;;;;;8.85;1.45;;;17.00;98.50;;;;;;5031702;28;20137;-43
2022/07/16 06:19:53;;;;;;;6.30;1.45;;;17.10;98.30;;;;;;5030822;28;20548;-42
2022/07/16 06:22:19;;;;;;;7.50;1.52;;;17.20;97.70;;;;;;5031973;28;20148;-42
2022/07/16 06:24:46;;;;;;;8.50;1.60;;;17.30;97.30;;;;;;5031203;28;20045;-43
2022/07/16 06:27:13;;;;;;;14.30;2.28;;;17.40;97.20;;;;;;5031946;28;20048;-43
2022/07/16 06:29:39;;;;;;;9.80;1.70;;;17.40;97.00;;;;;;5031935;28;20042;-43
2022/07/16 06:32:08;;;;;;;6.32;1.27;;;17.50;96.50;;;;;;5031367;28;20482;-42
2022/07/16 06:34:35;;;;;;;9.27;1.73;;;17.60;96.40;;;;;;5030360;28;20558;-44
2022/07/16 06:37:01;;;;;;;6.28;1.15;;;17.70;96.10;;;;;;5029643;28;20080;-43
2022/07/16 06:39:28;;;;;;;7.15;1.55;;;17.80;95.70;;;;;;5029469;28;20523;-44
2022/07/16 06:41:55;;;;;;;8.13;1.45;;;17.90;95.40;;;;;;5031726;28;20132;-43
2022/07/16 06:44:22;;;;;;;7.00;1.65;;;18.00;94.80;;;;;;5031978;28;20145;-43
2022/07/16 06:46:49;;;;;;;7.65;1.40;;;18.10;94.40;;;;;;5035278;28;20475;-43
2022/07/16 06:49:17;;;;;;;8.85;1.85;;;18.20;94.20;;;;;;5033604;28;20136;-43
2022/07/16 06:51:44;;;;;;;8.60;1.40;;;18.30;94.00;;;;;;5033686;28;20133;-43
2022/07/16 06:54:10;;;;;;;8.02;1.40;;;18.50;93.80;;;;;;5033907;28;20136;-43
2022/07/16 06:56:37;;;;;;;9.68;1.50;;;18.60;93.20;;;;;;5034989;28;20438;-43
2022/07/16 06:59:04;;;;;;;7.97;1.27;;;18.60;92.70;;;;;;5033957;28;20045;-43
2022/07/16 07:01:31;;;;;;;7.85;1.50;;;18.70;92.30;;;;;;5033013;28;20085;-43
2022/07/16 07:03:57;;;;;;;10.27;1.38;;;18.70;92.30;;;;;;5034636;28;20087;-43
2022/07/16 07:06:25;;;;;;;6.30;1.63;;;18.90;92.30;;;;;;5031327;28;20129;-43
2022/07/16 07:08:52;;;;;;;6.55;1.52;;;19.10;92.00;;;;;;5032286;28;20084;-43
2022/07/16 07:11:19;;;;;;;6.78;1.50;;;19.10;92.00;;;;;;5034778;28;20121;-43
2022/07/16 07:13:46;;;;;;;4.95;1.30;;;19.00;91.80;;;;;;5034340;28;20144;-43
2022/07/16 07:16:12;;;;;;;7.30;1.40;;;18.90;91.60;;;;;;5032909;28;20091;-43
2022/07/16 07:18:39;;;;;;;8.45;1.40;;;18.90;91.70;;;;;;5034727;28;20136;-43
2022/07/16 07:21:06;;;;;;;6.40;1.35;;;18.80;91.80;;;;;;5032457;28;20103;-43
2022/07/16 07:23:34;;;;;;;7.05;1.15;;;18.70;91.60;;;;;;5035114;28;20136;-43
2022/07/16 07:26:01;;;;;;;6.60;1.27;;;18.70;91.10;;;;;;5034282;28;20148;-43
2022/07/16 07:28:28;;;;;;;5.10;1.10;;;18.70;90.70;;;;;;5034099;28;20469;-43
2022/07/16 07:30:55;;;;;;;9.07;1.13;;;18.80;90.60;;;;;;5034279;28;20873;-43
2022/07/16 07:33:23;;;;;;;6.50;1.10;;;19.00;90.40;;;;;;5034555;28;20049;-44
2022/07/16 07:35:49;;;;;;;4.60;0.90;;;19.30;90.30;;;;;;5034635;28;20132;-42
2022/07/16 07:38:16;;;;;;;7.65;0.90;;;19.40;88.80;;;;;;5032359;28;20128;-43
2022/07/16 07:40:44;;;;;;;6.50;0.98;;;19.60;86.90;;;;;;5033280;28;20067;-42
2022/07/16 07:43:11;;;;;;;4.47;0.90;;;19.80;86.50;;;;;;5034639;28;20091;-42
2022/07/16 07:45:38;;;;;;;5.05;0.95;;;19.80;86.00;;;;;;5034027;28;20588;-42
2022/07/16 07:48:05;;;;;;;5.85;0.98;;;19.70;85.50;;;;;;5033056;28;20139;-43
2022/07/16 07:50:32;;;;;;;4.55;0.77;;;19.50;85.30;;;;;;5034553;28;20100;-43
2022/07/16 07:52:59;;;;;;;5.38;1.05;;;19.40;86.10;;;;;;5032021;28;20053;-43
2022/07/16 07:55:26;;;;;;;3.35;0.80;;;19.60;85.10;;;;;;5032911;28;20137;-43
2022/07/16 07:57:54;;;;;;;5.90;1.05;;;19.70;84.50;;;;;;5032998;28;20128;-43
2022/07/16 08:00:21;;;;;;;4.32;1.00;;;19.90;82.60;;;;;;5032116;28;20128;-43
2022/07/16 08:02:47;;;;;;;3.85;0.70;;;19.90;81.10;;;;;;5032265;28;20096;-43
2022/07/16 08:05:14;;;;;;;4.63;1.42;;;19.80;81.40;;;;;;5032850;28;20572;-43
2022/07/16 08:07:41;;;;;;;4.55;0.85;;;19.70;80.70;;;;;;5034100;28;20128;-44
2022/07/16 08:10:09;;;;;;;4.65;0.90;;;19.70;81.00;;;;;;5032278;28;20520;-44
2022/07/16 08:12:35;;;;;;;6.97;1.27;;;19.70;80.40;;;;;;5032371;28;20390;-43
2022/07/16 08:15:04;;;;;;;5.32;1.13;;;19.80;79.70;;;;;;5032493;28;20061;-43
2022/07/16 08:17:31;;;;;;;5.18;1.27;;;19.70;80.40;;;;;;5033442;28;20128;-42
2022/07/16 08:19:57;;;;;;;7.10;1.10;;;19.70;81.90;;;;;;5032618;28;20472;-42
2022/07/16 08:22:24;;;;;;;5.47;1.05;;;19.70;80.20;;;;;;5033903;28;20049;-43
2022/07/16 08:27:35;;;;;;;6.20;1.63;;;19.80;80.80;;;;;;5032049;28;20053;-44
2022/07/16 08:30:03;;;;;;;8.75;1.35;;;20.10;79.80;;;;;;5033523;28;20085;-44
2022/07/16 08:32:30;;;;;;;6.57;1.55;;;20.30;78.40;;;;;;5033602;28;20092;-43
2022/07/16 08:34:57;;;;;;;7.95;1.30;;;20.50;77.60;;;;;;5033098;28;20079;-43
2022/07/16 08:37:31;;;;;;;3.63;0.98;;;20.60;76.70;;;;;;5031867;28;20495;-43
2022/07/16 08:39:58;;;;;;;3.75;1.13;;;20.80;76.60;;;;;;5031568;28;20077;-43
2022/07/16 08:42:25;;;;;;;5.05;1.73;;;20.90;76.10;;;;;;5032106;28;20128;-43
2022/07/16 08:44:51;;;;;;;3.72;0.88;;;21.10;75.50;;;;;;5032913;28;20089;-44
2022/07/16 08:47:20;;;;;;;6.05;1.17;;;21.40;76.20;;;;;;5033526;28;20085;-43
2022/07/16 08:49:46;;;;;;;3.90;0.70;;;21.60;75.40;;;;;;5033325;28;20377;-44
2022/07/16 08:52:13;;;;;;;3.97;0.80;;;21.80;74.10;;;;;;5032660;28;20473;-43
2022/07/16 08:54:40;;;;;;;5.55;1.02;;;22.00;73.90;;;;;;5032968;28;20080;-43
2022/07/16 08:57:08;;;;;;;4.55;1.00;;;22.10;72.00;;;;;;5032338;28;20124;-43
2022/07/16 08:59:34;;;;;;;5.55;1.08;;;22.20;70.60;;;;;;5032751;28;20041;-44
2022/07/16 09:02:01;;;;;;;4.13;0.90;;;22.30;70.60;;;;;;5033196;28;20464;-44
2022/07/16 09:04:29;;;;;;;2.85;0.90;;;22.50;70.50;;;;;;5031902;28;20600;-43
2022/07/16 09:06:56;;;;;;;5.40;0.90;;;22.70;68.50;;;;;;5029687;28;20052;-44
2022/07/16 09:09:23;;;;;;;5.22;1.08;;;22.90;68.60;;;;;;5032440;28;20044;-43
2022/07/16 09:11:49;;;;;;;3.03;0.98;;;23.00;67.90;;;;;;5031710;28;20096;-43
2022/07/16 09:14:18;;;;;;;4.13;0.80;;;23.10;68.10;;;;;;5031656;28;20077;-43
2022/07/16 09:16:46;;;;;;;6.68;1.08;;;23.30;67.80;;;;;;5032830;28;20124;-43
2022/07/16 09:19:13;;;;;;;4.88;0.95;;;23.30;66.90;;;;;;5032502;28;20129;-43
2022/07/16 09:21:59;;;;;;;4.15;0.90;;;23.20;67.40;;;;;;5031766;28;20053;-43
2022/07/16 09:24:34;;;;;;;7.53;1.00;;;23.30;68.00;;;;;;5031226;28;20052;-44
2022/07/16 09:27:03;;;;;;;4.22;0.90;;;23.30;66.00;;;;;;5032633;28;20053;-44
2022/07/16 09:29:30;;;;;;;4.55;1.48;;;23.30;66.50;;;;;;5031226;28;20411;-44
2022/07/16 09:31:56;;;;;;;4.75;0.90;;;23.20;67.20;;;;;;5032614;28;20049;-44
2022/07/16 09:34:23;;;;;;;4.47;0.90;;;23.30;66.80;;;;;;5032320;28;20132;-44
2022/07/16 09:36:59;;;;;;;7.15;1.52;;;23.30;67.20;;;;;;5031049;28;20143;-44
2022/07/16 09:39:25;;;;;;;5.18;1.00;;;23.30;66.00;;;;;;5031459;28;20060;-45
2022/07/16 09:41:52;;;;;;;6.50;1.10;;;23.20;65.80;;;;;;5032357;28;20136;-43
2022/07/16 09:44:20;;;;;;;5.55;0.98;;;23.10;66.80;;;;;;5032402;28;20121;-44
2022/07/16 09:47:02;;;;;;;3.85;1.23;;;23.00;67.30;;;;;;5031879;28;20115;-44
2022/07/16 09:49:30;;;;;;;5.60;1.33;;;23.10;68.10;;;;;;5030976;28;20073;-44
2022/07/16 09:51:58;;;;;;;7.10;1.13;;;23.00;67.90;;;;;;5023503;28;20127;-44
2022/07/16 09:54:26;;;;;;;4.10;0.85;;;23.20;67.50;;;;;;5029774;28;20049;-44
2022/07/16 09:57:05;;;;;;;7.43;1.52;;;23.30;66.90;;;;;;5031475;28;20080;-44
2022/07/16 09:59:32;;;;;;;4.75;0.80;;;23.30;66.50;;;;;;5030498;28;20053;-44
2022/07/16 10:01:59;;;;;;;5.47;1.13;;;23.30;67.20;;;;;;5031585;28;20132;-44
2022/07/16 10:04:25;;;;;;;6.72;1.13;;;23.30;67.60;;;;;;5030652;28;20045;-44
2022/07/16 10:06:52;;;;;;;7.13;1.20;;;23.30;66.70;;;;;;5031220;28;20135;-44
2022/07/16 10:09:20;;;;;;;5.72;1.10;;;23.20;67.10;;;;;;5032226;28;20045;-44
2022/07/16 10:11:47;;;;;;;5.28;1.13;;;23.20;66.30;;;;;;5031703;28;20124;-44
2022/07/16 10:14:14;;;;;;;5.25;0.90;;;23.20;66.80;;;;;;5031485;28;20460;-44
2022/07/16 10:16:41;;;;;;;5.13;1.40;;;23.30;66.50;;;;;;5030830;28;20070;-44
2022/07/16 10:19:09;;;;;;;5.22;1.05;;;23.20;65.50;;;;;;5033190;28;20049;-44
2022/07/16 10:21:36;;;;;;;3.85;1.10;;;23.20;66.10;;;;;;5035790;28;20129;-43
2022/07/16 10:24:07;;;;;;;5.50;1.00;;;23.30;66.00;;;;;;5034336;28;20133;-44
2022/07/16 10:26:35;;;;;;;5.13;1.38;;;23.60;65.60;;;;;;5034203;28;20116;-44
2022/07/16 10:29:02;;;;;;;4.18;0.80;;;23.70;64.00;;;;;;5034423;28;20402;-44
2022/07/16 10:34:36;;;;;;;5.80;1.10;;;24.10;64.50;;;;;;5032081;28;20045;-44
2022/07/16 10:37:04;;;;;;;5.15;1.10;;;24.30;62.00;;;;;;5032963;28;20401;-42
2022/07/16 10:39:31;;;;;;;4.13;0.80;;;24.40;62.40;;;;;;5035074;28;20041;-43
2022/07/16 10:41:59;;;;;;;3.20;1.02;;;24.60;60.80;;;;;;5034323;28;20120;-43
2022/07/16 10:44:27;;;;;;;1.95;0.60;;;24.80;60.30;;;;;;5035264;28;20061;-43
2022/07/16 10:46:55;;;;;;;3.95;1.00;;;24.90;60.20;;;;;;5035664;28;20056;-43
2022/07/16 10:49:22;;;;;;;4.95;1.27;;;25.00;59.60;;;;;;5033810;28;20081;-43
2022/07/16 10:51:58;;;;;;;5.38;0.90;;;25.20;59.60;;;;;;5034463;28;20111;-43
2022/07/16 10:54:25;;;;;;;6.10;0.90;;;25.20;59.10;;;;;;5034279;28;20073;-43
2022/07/16 10:56:52;;;;;;;4.10;0.80;;;25.10;58.80;;;;;;5035203;28;20136;-43
2022/07/16 10:59:21;;;;;;;5.95;1.20;;;24.90;60.20;;;;;;5035297;28;20128;-44
2022/07/16 11:01:49;;;;;;;4.35;1.00;;;24.90;60.20;;;;;;5034390;28;20461;-44
2022/07/16 11:04:16;;;;;;;5.80;1.40;;;25.00;60.60;;;;;;5034424;28;20103;-44
2022/07/16 11:06:49;;;;;;;4.07;0.70;;;25.30;60.10;;;;;;5034021;28;20058;-43
2022/07/16 11:09:15;;;;;;;3.53;0.82;;;25.70;59.80;;;;;;5033816;28;20538;-43
2022/07/16 11:11:42;;;;;;;6.53;1.17;;;25.70;59.50;;;;;;5034457;28;20136;-44
2022/07/16 11:14:10;;;;;;;8.15;1.10;;;25.70;59.50;;;;;;5034040;28;20058;-43
2022/07/16 11:16:58;;;;;;;4.28;0.95;;;25.60;57.90;;;;;;5033967;28;20118;-42
2022/07/16 11:19:25;;;;;;;4.85;1.02;;;25.50;58.90;;;;;;5034044;28;20124;-44
2022/07/16 11:21:54;;;;;;;5.53;1.40;;;25.50;59.40;;;;;;5031182;28;20084;-43
2022/07/16 11:24:21;;;;;;;5.38;1.00;;;25.50;59.20;;;;;;5033089;28;20136;-44
2022/07/16 11:26:48;;;;;;;5.85;1.08;;;25.60;59.70;;;;;;5032658;28;20053;-43
2022/07/16 11:29:15;;;;;;;4.32;1.10;;;25.60;59.60;;;;;;5035091;28;20049;-43
2022/07/16 11:31:43;;;;;;;5.22;1.17;;;25.60;59.60;;;;;;5033928;28;20081;-43
2022/07/16 11:34:11;;;;;;;6.75;1.30;;;25.80;59.90;;;;;;5034398;28;20124;-45
2022/07/16 11:36:43;;;;;;;4.82;1.30;;;26.00;59.30;;;;;;5034636;28;20549;-42
2022/07/16 11:39:10;;;;;;;5.60;1.05;;;26.10;57.50;;;;;;5033450;28;20436;-43
2022/07/16 11:41:38;;;;;;;6.72;1.20;;;25.90;58.50;;;;;;5034599;28;20133;-42
2022/07/16 11:44:09;;;;;;;5.53;1.30;;;25.70;58.50;;;;;;5032001;28;20128;-43
2022/07/16 11:46:41;;;;;;;;;;;25.50;59.40;;;;;;5034773;28;20055;-44
2022/07/16 11:49:09;;;;;;;4.85;1.48;;;25.30;60.20;;;;;;5033124;28;19921;-44
2022/07/16 11:51:39;;;;;;;5.65;1.30;;;25.20;60.00;;;;;;5032376;28;20156;-43
2022/07/16 11:54:06;;;;;;;7.88;1.20;;;25.20;60.30;;;;;;5033878;28;20053;-44
2022/07/16 11:56:34;;;;;;;5.30;0.90;;;25.30;59.10;;;;;;5034360;28;20089;-44
2022/07/16 11:59:00;;;;;;;3.70;0.75;;;25.50;58.00;;;;;;5032758;28;20057;-44
2022/07/16 12:01:31;;;;;;;5.65;1.42;;;25.60;57.90;;;;;;5033449;28;20481;-43
2022/07/16 12:03:58;;;;;;;6.57;1.15;;;25.90;58.40;;;;;;5033890;28;20518;-44
2022/07/16 12:06:26;;;;;;;5.70;1.17;;;26.20;58.50;;;;;;5033064;28;20057;-44
2022/07/16 12:08:53;;;;;;;7.80;1.30;;;26.30;57.70;;;;;;5031532;28;20120;-44
2022/07/16 12:11:20;;;;;;;7.60;1.08;;;26.30;58.20;;;;;;5033931;28;20056;-44
2022/07/16 12:13:53;;;;;;;4.65;1.30;;;26.20;57.20;;;;;;5033425;28;20115;-44
2022/07/16 12:16:20;;;;;;;5.32;1.10;;;26.10;57.50;;;;;;5033706;28;20049;-43
2022/07/16 12:19:02;;;;;;;4.05;1.05;;;25.90;57.10;;;;;;5033568;28;20128;-43
2022/07/16 12:21:31;;;;;;;6.95;1.10;;;25.80;56.20;;;;;;5032013;28;20128;-44
2022/07/16 12:23:58;;;;;;;4.50;1.30;;;25.60;57.40;;;;;;5032580;28;20112;-44
2022/07/16 12:26:28;;;;;;;6.40;1.02;;;25.70;57.30;;;;;;5033226;28;20080;-43
2022/07/16 12:28:55;;;;;;;4.40;1.05;;;26.00;57.10;;;;;;5031806;28;20057;-43
2022/07/16 12:31:22;;;;;;;3.33;1.20;;;26.10;56.50;;;;;;5030828;28;20452;-43
2022/07/16 12:33:51;;;;;;;8.90;1.40;;;26.20;56.30;;;;;;5028274;28;20433;-44
2022/07/16 12:36:18;;;;;;;5.45;1.15;;;26.40;55.60;;;;;;5029050;28;20060;-44
2022/07/16 12:38:51;;;;;;;4.30;1.13;;;26.50;54.80;;;;;;5029255;28;20057;-44
2022/07/16 12:41:20;;;;;;;4.78;1.10;;;26.60;54.40;;;;;;5028225;28;20089;-44
2022/07/16 12:43:49;;;;;;;4.78;1.02;;;26.50;55.10;;;;;;5028007;28;20085;-44
2022/07/16 12:46:16;;;;;;;5.68;1.30;;;26.40;55.00;;;;;;5032275;28;20064;-44
2022/07/16 12:48:47;;;;;;;5.22;1.38;;;26.50;54.60;;;;;;5031628;28;20339;-43
2022/07/16 12:51:16;;;;;;;3.53;1.00;;;26.60;54.50;;;;;;5032378;28;20037;-42
2022/07/16 12:53:42;;;;;;;2.15;0.88;;;26.70;54.00;;;;;;5032040;28;20133;-43
2022/07/16 12:58:55;;;;;;;3.00;1.05;;;27.00;54.80;;;;;;5026413;28;20579;-43
2022/07/16 13:01:22;;;;;;;4.38;0.85;;;27.20;53.60;;;;;;5029261;28;20045;-44